Latest Weather Observations for Kowen Forest

IDN60901

Issued at 9:12 am EDT Thursday 21 October 2021 (issued every 10 minutes, with the page automatically refreshed every 10 minutes)

About weather observations | Map of Canberra area stations | Latest observations for Canberra area | Other Formats
Station Details ID: 250071 Name: KOWEN FOREST (PCS) Lat: -35.31 Lon: 149.32 Height: 720.0 m

Portable automatic weather stations (PAWS) are operated by other organisations, such as Fire and Emergency Services, and are included here by agreement. Portable stations may be deployed to a location for a short period and their location may be subject to change without notice. Wind observations from these stations are provided from heights of either three (3) or ten (10) metres above ground level (AGL).

Data from the previous 72 hours. | See also: Recent months for locations in Aust Capital Territory
Date/Time
EDT
Temp
°C
App
Temp
°C
Dew
Point
°C
Rel
Hum
%
Delta-T
°C
Wind Press
QNH
hPa
Press
MSL
hPa
Rain since
9am
mm
Dir  Spd
km/h
Gust
km/h
Spd
kts
Gust
kts
21/09:00am 13.9 11.5 10.1 78 2.0 SE 13 15 7 8 - - 0.2
21/08:50am 13.8 12.2 10.3 79 1.9 SE 9 13 5 7 - - 0.2
21/08:40am 13.5 12.3 10.4 81 1.7 SSE 7 13 4 7 - - 0.2
21/08:30am 13.4 12.5 10.6 83 1.5 S 6 7 3 4 - - 0.2
21/08:20am 13.1 12.1 10.3 83 1.5 SE 6 7 3 4 - - 0.2
21/08:10am 12.6 11.5 10.0 84 1.4 SSE 6 9 3 5 - - 0.2
21/08:00am 12.4 10.7 9.9 85 1.3 SE 9 11 5 6 - - 0.2
21/07:50am 12.5 11.2 10.1 85 1.3 SE 7 9 4 5 - - 0.2
21/07:40am 13.0 12.0 10.3 84 1.5 SE 6 15 3 8 - - 0.2
21/07:30am 13.2 12.9 10.0 81 1.7 N 2 4 1 2 - - 0.2
21/07:20am 12.3 11.5 9.7 84 1.4 ESE 4 4 2 2 - - 0.2
21/07:10am 11.0 9.8 9.7 92 0.7 E 6 7 3 4 - - 0.2
21/07:00am 10.2 9.5 9.9 98 0.2 ENE 4 6 2 3 - - 0.2
21/06:50am 9.8 9.0 9.5 98 0.2 ENE 4 6 2 3 - - 0.2
21/06:40am 9.7 8.8 9.4 98 0.2 E 4 4 2 2 - - 0.2
21/06:30am 9.5 8.6 9.3 99 0.1 ESE 4 6 2 3 - - 0.2
21/06:20am 9.2 8.6 9.1 99 0.1 E 2 4 1 2 - - 0.2
21/06:10am 9.2 8.6 9.0 99 0.1 NNE 2 4 1 2 - - 0.2
21/06:00am 9.3 8.8 9.2 99 0.1 NE 2 2 1 1 - - 0.2
21/05:50am 9.1 8.5 9.0 99 0.1 ENE 2 2 1 1 - - 0.2
21/05:40am 8.8 8.2 8.8 100 0.0 NE 2 4 1 2 - - 0.2
21/05:30am 8.7 7.6 8.6 99 0.1 NE 4 6 2 3 - - 0.2
21/05:20am 8.6 8.3 8.5 99 0.1 CALM 0 2 0 1 - - 0.2
21/05:10am 8.5 7.8 8.5 100 0.0 N 2 2 1 1 - - 0.2
21/05:00am 8.6 7.5 8.6 100 0.0 E 4 4 2 2 - - 0.2
21/04:50am 8.3 6.7 8.2 99 0.0 E 6 7 3 4 - - 0.2
21/04:40am 7.8 6.5 7.6 99 0.1 ENE 4 6 2 3 - - 0.2
21/04:30am 7.8 6.5 7.6 99 0.1 ENE 4 4 2 2 - - 0.2
21/04:20am 8.2 6.5 7.7 97 0.2 E 6 6 3 3 - - 0.2
21/04:10am 8.4 6.8 8.1 98 0.1 E 6 7 3 4 - - 0.2
21/04:00am 8.3 6.7 8.1 99 0.1 E 6 7 3 4 - - 0.2
21/03:50am 8.4 7.2 7.9 97 0.2 E 4 6 2 3 - - 0.2
21/03:40am 9.0 7.9 8.3 95 0.4 E 4 6 2 3 - - 0.2
21/03:30am 9.5 7.9 8.6 94 0.5 ESE 7 7 4 4 - - 0.2
21/03:20am 9.3 7.7 8.6 95 0.4 ESE 7 7 4 4 - - 0.2
21/03:10am 9.0 7.5 8.6 97 0.2 E 6 7 3 4 - - 0.2
21/03:00am 8.8 8.1 8.4 97 0.2 NE 2 4 1 2 - - 0.2
21/02:50am 9.1 8.4 8.5 96 0.3 E 2 4 1 2 - - 0.2
21/02:40am 9.6 8.5 8.5 93 0.6 E 4 6 2 3 - - 0.2
21/02:30am 10.0 8.6 8.9 93 0.6 ESE 6 6 3 3 - - 0.2
21/02:20am 10.2 9.2 9.0 92 0.6 ESE 4 6 2 3 - - 0.2
21/02:10am 10.7 10.2 9.3 91 0.7 ESE 2 4 1 2 - - 0.2
21/02:00am 10.9 10.0 9.3 90 0.8 ESE 4 4 2 2 - - 0.2
21/01:50am 11.0 9.7 9.2 89 0.9 SE 6 6 3 3 - - 0.2
21/01:40am 10.9 10.0 9.2 89 0.9 SSE 4 6 2 3 - - 0.2
21/01:30am 10.8 9.5 9.3 90 0.8 SSE 6 7 3 4 - - 0.2
21/01:20am 10.8 9.3 9.3 90 0.8 S 7 7 4 4 - - 0.2
21/01:10am 11.0 9.6 9.5 90 0.8 S 7 11 4 6 - - 0.2
21/01:00am 11.0 9.8 9.5 90 0.8 S 6 7 3 4 - - 0.2
21/12:50am 11.1 10.2 9.4 89 0.9 SE 4 4 2 2 - - 0.2
21/12:40am 11.1 9.9 9.4 89 0.9 SSE 6 7 3 4 - - 0.2
21/12:30am 11.1 9.9 9.4 89 0.9 SSE 6 9 3 5 - - 0.2
21/12:20am 11.2 9.7 9.2 87 1.0 S 7 9 4 5 - - 0.2
21/12:10am 11.2 9.3 9.1 87 1.1 SSE 9 11 5 6 - - 0.2
21/12:00am 11.3 9.4 9.1 86 1.1 SSE 9 13 5 7 - - 0.2
 
Date/Time
EDT
Temp
°C
App
Temp
°C
Dew
Point
°C
Rel
Hum
%
Delta-T
°C
Wind Press
QNH
hPa
Press
MSL
hPa
Rain since
9am
mm
Dir  Spd
km/h
Gust
km/h
Spd
kts
Gust
kts
20/11:50pm 11.2 9.7 9.0 86 1.1 SSE 7 9 4 5 - - 0.2
20/11:40pm 11.2 9.6 8.9 86 1.2 S 7 9 4 5 - - 0.2
20/11:30pm 11.0 9.6 8.9 87 1.1 S 6 9 3 5 - - 0.2
20/11:20pm 10.7 9.3 8.8 88 1.0 SE 6 11 3 6 - - 0.2
20/11:10pm 9.6 8.5 8.5 93 0.6 ESE 4 9 2 5 - - 0.2
20/11:00pm 9.1 7.9 8.2 94 0.5 E 4 6 2 3 - - 0.2
20/10:50pm 9.3 8.1 8.0 92 0.7 ESE 4 4 2 2 - - 0.2
20/10:40pm 9.1 7.5 8.1 93 0.5 E 6 7 3 4 - - 0.2
20/10:30pm 9.0 7.4 7.9 93 0.5 E 6 7 3 4 - - 0.2
20/10:20pm 8.6 7.0 8.1 97 0.2 ENE 6 6 3 3 - - 0.2
20/10:10pm 9.0 8.2 8.2 95 0.4 N 2 4 1 2 - - 0.2
20/10:00pm 9.3 8.6 8.4 94 0.5 S 2 2 1 1 - - 0.2
20/09:50pm 9.8 9.0 8.3 90 0.8 NE 2 4 1 2 - - 0.2
20/09:40pm 10.2 9.1 8.5 89 0.9 E 4 6 2 3 - - 0.2
20/09:30pm 10.4 8.7 8.3 87 1.1 E 7 9 4 5 - - 0.2
20/09:20pm 10.3 8.6 8.3 87 1.0 E 7 9 4 5 - - 0.2
20/09:10pm 10.6 9.1 8.4 86 1.1 ESE 6 7 3 4 - - 0.2
20/09:00pm 10.9 9.8 8.3 84 1.3 ESE 4 6 2 3 - - 0.2
20/08:50pm 11.0 9.5 8.5 84 1.3 SE 6 7 3 4 - - 0.2
20/08:40pm 11.1 9.4 8.4 83 1.4 SE 7 7 4 4 - - 0.2
20/08:30pm 11.2 9.5 8.4 83 1.4 ESE 7 9 4 5 - - 0.2
20/08:20pm 11.2 9.5 8.5 83 1.4 ESE 7 9 4 5 - - 0.2
20/08:10pm 11.4 9.7 8.5 82 1.5 E 7 9 4 5 - - 0.2
20/08:00pm 11.6 9.2 8.6 82 1.5 ESE 11 13 6 7 - - 0.2
20/07:50pm 11.7 9.7 8.6 81 1.6 ESE 9 11 5 6 - - 0.2
20/07:40pm 12.0 9.2 8.7 80 1.7 ESE 13 17 7 9 - - 0.2
20/07:30pm 12.1 9.7 8.8 80 1.7 ESE 11 17 6 9 - - 0.2
20/07:20pm 12.3 10.4 8.9 80 1.8 ESE 9 11 5 6 - - 0.2
20/07:10pm 12.6 9.9 8.9 78 1.9 ESE 13 17 7 9 - - 0.2
20/07:00pm 12.9 10.6 8.9 76 2.1 ESE 11 13 6 7 - - 0.2
20/06:50pm 13.0 10.3 8.8 75 2.2 SE 13 15 7 8 - - 0.2
20/06:40pm 13.3 10.5 8.5 72 2.5 SE 13 19 7 10 - - 0.2
20/06:30pm 13.2 9.7 8.7 74 2.3 SE 17 20 9 11 - - 0.2
20/06:20pm 13.8 10.8 9.2 74 2.4 SE 15 19 8 10 - - 0.2
20/06:10pm 14.3 11.8 9.8 74 2.4 SE 13 19 7 10 - - 0.2
20/06:00pm 15.1 12.2 9.6 69 3.0 SSE 15 24 8 13 - - 0.2
20/05:50pm 14.8 10.9 9.4 70 2.9 SE 20 26 11 14 - - 0.2
20/05:40pm 15.0 10.3 9.1 68 3.1 SE 24 28 13 15 - - 0.2
20/05:30pm 15.4 12.1 9.4 67 3.2 ESE 17 22 9 12 - - 0.2
20/05:20pm 15.2 12.3 9.6 69 3.0 E 15 19 8 10 - - 0.2
20/05:10pm 15.7 12.4 9.4 66 3.4 ESE 17 22 9 12 - - 0.2
20/05:00pm 14.9 11.9 9.2 68 3.0 SE 15 24 8 13 - - 0.2
20/04:50pm 15.3 11.5 8.9 65 3.4 SE 19 24 10 13 - - 0.2
20/04:40pm 16.1 12.1 9.2 63 3.7 SE 20 26 11 14 - - 0.2
20/04:30pm 16.4 13.4 9.3 63 3.8 SE 15 20 8 11 - - 0.2
20/04:20pm 15.5 11.9 10.0 70 3.0 SE 19 24 10 13 - - 0.2
20/04:10pm 15.5 11.2 9.3 66 3.3 SE 22 28 12 15 - - 0.2
20/04:00pm 15.8 11.2 9.7 67 3.3 SE 24 28 13 15 - - 0.2
20/03:50pm 15.5 11.8 10.1 70 2.9 SE 20 26 11 14 - - 0.2
20/03:40pm 15.5 11.4 10.2 70 2.9 SE 22 26 12 14 - - 0.2
20/03:30pm 16.0 12.5 10.1 68 3.2 SE 19 24 10 13 - - 0.2
20/03:20pm 16.1 13.3 11.2 72 2.7 SE 17 24 9 13 - - 0.2
20/03:10pm 15.7 12.7 10.8 72 2.7 SSE 17 20 9 11 - - 0.2
20/03:00pm 15.0 12.8 10.8 76 2.3 SSE 13 19 7 10 - - 0.2
20/02:50pm 14.4 11.9 10.9 79 1.9 SE 15 20 8 11 - - 0.2
20/02:40pm 13.8 10.4 10.6 81 1.7 SE 19 22 10 12 - - 0.2
20/02:30pm 14.9 11.5 10.4 74 2.5 SE 19 20 10 11 - - 0.2
20/02:20pm 15.3 12.1 9.8 69 3.0 SE 17 20 9 11 - - 0.2
20/02:10pm 14.2 11.1 10.2 77 2.2 SSE 17 19 9 10 - - 0.2
20/02:00pm 13.9 11.0 9.8 76 2.2 SSE 15 19 8 10 - - 0.2
20/01:50pm 13.4 10.7 10.5 82 1.6 SSE 15 20 8 11 - - 0.2
20/01:40pm 13.2 10.6 10.8 85 1.3 SSE 15 20 8 11 - - 0.2
20/01:30pm 12.9 10.8 11.0 88 1.0 SE 13 17 7 9 - - 0.2
20/01:20pm 12.5 10.3 10.8 89 0.9 SSE 13 17 7 9 - - 0.2
20/01:10pm 12.4 9.8 10.6 89 1.0 SSE 15 20 8 11 - - 0.0
20/01:00pm 12.9 10.2 10.5 85 1.3 SE 15 20 8 11 - - 0.0
20/12:50pm 13.7 10.8 9.7 77 2.1 SE 15 24 8 13 - - 0.0
20/12:40pm 13.4 10.9 9.7 78 2.0 SSE 13 19 7 10 - - 0.0
20/12:30pm 13.2 10.0 9.8 80 1.8 SSE 17 22 9 12 - - 0.0
20/12:20pm 14.0 10.3 9.6 75 2.3 SE 19 24 10 13 - - 0.0
20/12:10pm 14.6 10.3 9.3 70 2.8 ESE 22 26 12 14 - - 0.0
20/12:00pm 14.4 10.0 9.1 70 2.8 ESE 22 28 12 15 - - 0.0
20/11:50am 16.9 13.4 10.3 65 3.6 SE 19 28 10 15 - - 0.0
20/11:40am 14.5 11.2 9.4 71 2.7 SSE 17 22 9 12 - - 0.0
20/11:30am 13.9 10.5 9.1 73 2.5 SSE 17 22 9 12 - - 0.0
20/11:20am 13.5 9.9 9.7 78 2.0 SSE 19 22 10 12 - - 0.0
20/11:10am 13.3 10.1 9.9 80 1.8 SE 17 20 9 11 - - 0.0
20/11:00am 13.5 9.7 9.0 74 2.4 SE 19 24 10 13 - - 0.0
20/10:50am 13.2 9.4 9.0 75 2.2 SE 19 24 10 13 - - 0.0
20/10:40am 13.0 9.6 9.1 77 2.0 SSE 17 24 9 13 - - 0.0
20/10:30am 12.7 9.3 9.3 80 1.8 SSE 17 20 9 11 - - 0.0
20/10:20am 12.5 9.6 9.5 82 1.6 SSE 15 20 8 11 - - 0.0
20/10:10am 12.3 9.3 9.4 82 1.5 SSE 15 20 8 11 - - 0.0
20/10:00am 12.3 9.3 9.4 82 1.5 SSE 15 20 8 11 - - 0.0
20/09:50am 11.9 9.3 9.5 85 1.3 SSE 13 22 7 12 - - 0.0
20/09:40am 11.4 9.5 8.9 84 1.3 SE 9 13 5 7 - - 0.0
20/09:30am 11.3 9.7 8.8 84 1.3 SSE 7 9 4 5 - - 0.0
20/09:20am 11.4 9.9 9.3 87 1.1 SSE 7 11 4 6 - - 0.0
20/09:10am 11.3 9.4 9.1 86 1.1 SSE 9 13 5 7 - - 0.0
20/09:00am 11.4 9.8 8.7 83 1.4 SSE 7 11 4 6 - - 0.6
20/08:50am 11.4 9.7 8.2 81 1.6 SSE 7 11 4 6 - - 0.6
20/08:40am 10.9 8.6 7.6 80 1.7 SSE 9 13 5 7 - - 0.6
20/08:30am 10.5 7.5 7.5 82 1.5 SSE 13 15 7 8 - - 0.6
20/08:20am 10.5 7.5 7.6 82 1.5 SSE 13 17 7 9 - - 0.6
20/08:10am 10.5 6.6 7.3 80 1.6 SE 17 22 9 12 - - 0.6
20/08:00am 10.3 7.6 7.4 82 1.4 SSE 11 13 6 7 - - 0.6
20/07:50am 10.4 7.3 7.4 82 1.5 S 13 17 7 9 - - 0.6
20/07:40am 10.4 7.4 7.5 82 1.4 SSE 13 17 7 9 - - 0.6
20/07:30am 9.8 6.7 7.3 84 1.2 S 13 17 7 9 - - 0.6
20/07:20am 9.1 6.4 7.2 88 0.9 S 11 13 6 7 - - 0.6
20/07:10am 8.5 6.2 7.5 93 0.5 S 9 11 5 6 - - 0.6
20/07:00am 8.2 6.2 7.3 94 0.4 S 7 11 4 6 - - 0.6
20/06:50am 7.5 6.0 6.7 95 0.4 S 4 6 2 3 - - 0.6
20/06:40am 6.9 5.3 6.2 95 0.3 S 4 4 2 2 - - 0.6
20/06:30am 7.1 5.1 6.4 95 0.3 S 6 6 3 3 - - 0.6
20/06:20am 7.0 5.0 6.3 95 0.3 SSW 6 7 3 4 - - 0.6
20/06:10am 6.7 4.6 5.9 95 0.4 SW 6 7 3 4 - - 0.6
20/06:00am 6.7 5.0 5.8 94 0.4 S 4 6 2 3 - - 0.6
20/05:50am 7.0 5.0 6.1 94 0.4 SSE 6 6 3 3 - - 0.6
20/05:40am 7.3 5.3 6.3 93 0.5 SSE 6 9 3 5 - - 0.6
20/05:30am 7.5 5.0 6.5 93 0.5 S 9 13 5 7 - - 0.6
20/05:20am 7.4 4.5 6.4 93 0.5 SSW 11 13 6 7 - - 0.6
20/05:10am 7.4 5.2 6.3 93 0.5 SW 7 9 4 5 - - 0.6
20/05:00am 7.6 5.5 6.5 93 0.5 SW 7 11 4 6 - - 0.6
20/04:50am 7.8 4.9 6.5 91 0.6 SW 11 13 6 7 - - 0.6
20/04:40am 7.9 4.2 6.4 90 0.7 SW 15 15 8 8 - - 0.4
20/04:30am 7.8 4.9 6.4 91 0.7 SSW 11 13 6 7 - - 0.4
20/04:20am 7.7 5.2 6.4 91 0.6 SSW 9 11 5 6 - - 0.4
20/04:10am 7.7 5.5 6.4 91 0.6 SSW 7 11 4 6 - - 0.4
20/04:00am 7.6 5.4 6.1 90 0.7 S 7 9 4 5 - - 0.2
20/03:50am 7.6 5.6 6.3 91 0.6 S 6 7 3 4 - - 0.2
20/03:40am 7.8 5.2 6.2 90 0.8 S 9 11 5 6 - - 0.2
20/03:30am 7.9 5.7 6.1 88 0.9 S 7 7 4 4 - - 0.2
20/03:20am 7.9 5.2 5.8 86 1.0 S 9 11 5 6 - - 0.2
20/03:10am 7.8 5.1 5.7 86 1.0 SSW 9 11 5 6 - - 0.2
20/03:00am 7.6 5.2 5.4 86 1.0 SSW 7 9 4 5 - - 0.2
20/02:50am 7.4 4.6 5.1 85 1.1 SSW 9 11 5 6 - - 0.2
20/02:40am 6.9 3.7 4.9 87 0.9 SSW 11 11 6 6 - - 0.2
20/02:30am 6.6 3.3 4.7 88 0.9 SW 11 11 6 6 - - 0.2
20/02:20am 6.8 3.9 4.6 86 1.0 SSW 9 11 5 6 - - 0.2
20/02:10am 7.0 4.1 4.6 85 1.1 SSW 9 11 5 6 - - 0.2
20/02:00am 7.1 4.2 4.6 84 1.1 S 9 11 5 6 - - 0.2
20/01:50am 7.5 4.6 4.5 81 1.4 SSE 9 11 5 6 - - 0.2
20/01:40am 7.6 4.7 4.4 80 1.5 SE 9 11 5 6 - - 0.2
20/01:30am 7.6 4.7 4.4 80 1.5 SSE 9 11 5 6 - - 0.2
20/01:20am 7.8 3.7 4.4 79 1.6 SSE 15 19 8 10 - - 0.2
20/01:10am 7.5 3.0 4.3 80 1.5 S 17 19 9 10 - - 0.2
20/01:00am 6.3 2.5 3.9 85 1.1 S 13 15 7 8 - - 0.2
20/12:50am 4.3 1.7 3.2 93 0.5 SW 6 7 3 4 - - 0.2
20/12:40am 3.8 1.9 2.8 93 0.4 NNE 2 4 1 2 - - 0.2
20/12:30am 3.5 0.8 2.4 92 0.5 NE 6 7 3 4 - - 0.2
20/12:20am 3.7 1.7 2.5 92 0.5 E 2 4 1 2 - - 0.2
20/12:10am 4.0 2.1 2.8 92 0.5 ENE 2 6 1 3 - - 0.2
20/12:00am 4.4 2.6 3.4 93 0.4 NE 2 4 1 2 - - 0.2
 
Date/Time
EDT
Temp
°C
App
Temp
°C
Dew
Point
°C
Rel
Hum
%
Delta-T
°C
Wind Press
QNH
hPa
Press
MSL
hPa
Rain since
9am
mm
Dir  Spd
km/h
Gust
km/h
Spd
kts
Gust
kts
19/11:50pm 4.2 2.0 3.2 93 0.4 NNE 4 6 2 3 - - 0.2
19/11:40pm 4.3 2.5 3.3 93 0.4 N 2 4 1 2 - - 0.2
19/11:30pm 3.7 1.4 2.5 92 0.5 N 4 4 2 2 - - 0.2
19/11:20pm 3.8 1.5 2.5 91 0.5 NNE 4 4 2 2 - - 0.2
19/11:10pm 4.1 1.8 2.7 91 0.6 ESE 4 6 2 3 - - 0.2
19/11:00pm 4.3 2.0 2.6 89 0.7 E 4 4 2 2 - - 0.2
19/10:50pm 5.5 2.9 3.1 84 1.0 SE 6 9 3 5 - - 0.2
19/10:40pm 6.1 3.5 3.4 83 1.2 SSE 6 7 3 4 - - 0.2
19/10:30pm 6.9 4.4 3.8 80 1.4 SSE 6 7 3 4 - - 0.2
19/10:20pm 7.3 4.1 3.3 76 1.8 SSE 9 9 5 5 - - 0.2
19/10:10pm 7.2 4.0 3.0 74 1.8 SSE 9 11 5 6 - - 0.2
19/10:00pm 6.1 2.8 2.6 78 1.5 SSE 9 11 5 6 - - 0.2
19/09:50pm 4.6 1.8 2.9 89 0.7 SSE 7 7 4 4 - - 0.2
19/09:40pm 4.6 2.3 3.0 89 0.7 ENE 4 6 2 3 - - 0.2
19/09:30pm 5.0 2.8 3.2 88 0.8 ESE 4 4 2 2 - - 0.2
19/09:20pm 6.3 4.5 3.5 82 1.2 E 2 4 1 2 - - 0.2
19/09:10pm 7.1 4.9 3.6 78 1.6 SW 4 6 2 3 - - 0.2
19/09:00pm 7.5 4.7 3.2 74 1.9 S 7 11 4 6 - - 0.2
19/08:50pm 7.3 4.5 3.2 75 1.8 S 7 9 4 5 - - 0.2
19/08:40pm 7.5 4.8 3.6 76 1.7 S 7 11 4 6 - - 0.2
19/08:30pm 7.8 5.0 3.4 74 2.0 S 7 7 4 4 - - 0.2
19/08:20pm 8.3 5.1 3.3 71 2.2 S 9 15 5 8 - - 0.2
19/08:10pm 7.9 5.1 3.4 73 2.0 SSE 7 13 4 7 - - 0.2
19/08:00pm 8.3 5.6 3.9 74 2.0 SE 7 9 4 5 - - 0.2
19/07:50pm 8.5 5.4 3.8 72 2.1 SE 9 11 5 6 - - 0.2
19/07:40pm 9.0 6.3 3.8 70 2.4 SSE 7 9 4 5 - - 0.2
19/07:30pm 9.4 6.4 3.9 68 2.5 SE 9 11 5 6 - - 0.2
19/07:20pm 10.0 6.9 3.7 65 2.9 SE 9 13 5 7 - - 0.2
19/07:10pm 10.6 7.1 3.7 62 3.2 SE 11 17 6 9 - - 0.2
19/07:00pm 11.2 7.7 3.6 59 3.5 SE 11 15 6 8 - - 0.2
19/06:50pm 11.7 7.4 3.5 57 3.8 SSE 15 22 8 12 - - 0.2
19/06:40pm 12.2 8.3 3.3 54 4.1 SSE 13 20 7 11 - - 0.2
19/06:30pm 12.3 8.5 4.1 57 3.9 ESE 13 17 7 9 - - 0.2
19/06:20pm 12.6 8.0 3.5 54 4.2 SSE 17 19 9 10 - - 0.2
19/06:10pm 12.7 9.1 3.0 51 4.5 S 11 15 6 8 - - 0.2
19/06:00pm 12.1 7.7 2.9 53 4.2 SSW 15 17 8 9 - - 0.2
19/05:50pm 12.0 6.7 3.0 54 4.1 SSW 20 22 11 12 - - 0.2
19/05:40pm 12.9 7.0 2.0 47 4.9 S 22 26 12 14 - - 0.2
19/05:30pm 12.8 7.2 1.2 45 5.1 S 20 24 11 13 - - 0.2
19/05:20pm 11.9 6.6 1.6 49 4.6 S 19 22 10 12 - - 0.2
19/05:10pm 12.0 6.3 0.6 45 5.0 S 20 24 11 13 - - 0.2
19/05:00pm 12.8 6.9 1.8 47 4.9 S 22 33 12 18 - - 0.2
19/04:50pm 14.8 9.1 3.0 45 5.5 SSE 22 28 12 15 - - 0.2
19/04:40pm 14.7 10.1 3.6 47 5.3 SSE 17 19 9 10 - - 0.2
19/04:30pm 14.5 8.9 1.3 40 6.0 S 20 24 11 13 - - 0.2
19/04:20pm 14.3 8.5 2.3 44 5.5 S 22 26 12 14 - - 0.2
19/04:10pm 14.4 8.0 0.9 40 6.0 S 24 28 13 15 - - 0.2
19/04:00pm 14.9 9.2 2.6 43 5.7 S 22 28 12 15 - - 0.2
19/03:50pm 15.0 9.1 1.5 40 6.1 S 22 24 12 13 - - 0.2
19/03:40pm 15.2 8.9 1.6 39 6.2 SSW 24 30 13 16 - - 0.2
19/03:30pm 14.9 8.4 0.1 36 6.5 SSW 24 28 13 15 - - 0.2
19/03:20pm 14.9 9.6 2.1 42 5.9 S 19 22 10 12 - - 0.2
19/03:10pm 14.7 9.1 1.3 40 6.1 S 20 24 11 13 - - 0.2
19/03:00pm 14.7 8.3 3.2 46 5.4 SSW 26 30 14 16 - - 0.2
19/02:50pm 14.5 9.2 4.9 52 4.7 SSW 22 28 12 15 - - 0.2
19/02:40pm 13.8 9.6 3.6 50 4.8 S 15 26 8 14 - - 0.2
19/02:30pm 12.8 8.7 4.1 55 4.1 S 15 17 8 9 - - 0.2
19/02:20pm 12.9 8.9 4.9 58 3.8 SSE 15 19 8 10 - - 0.2
19/02:10pm 13.3 9.7 5.0 57 4.0 SSE 13 17 7 9 - - 0.2
19/02:00pm 13.2 10.2 4.3 55 4.2 S 9 13 5 7 - - 0.2
19/01:50pm 12.6 8.8 3.9 55 4.1 S 13 19 7 10 - - 0.2
19/01:40pm 12.6 8.5 4.6 58 3.8 SE 15 19 8 10 - - 0.2
19/01:30pm 13.2 8.8 5.0 57 4.0 SSE 17 20 9 11 - - 0.2
19/01:20pm 12.6 8.2 4.5 58 3.9 SSE 17 22 9 12 - - 0.2
19/01:10pm 13.1 9.1 5.0 58 3.9 S 15 20 8 11 - - 0.2
19/01:00pm 12.2 7.4 4.4 59 3.7 SSE 19 24 10 13 - - 0.2
19/12:50pm 11.6 7.1 6.0 68 2.7 S 19 24 10 13 - - 0.2
19/12:40pm 10.9 7.5 6.0 72 2.4 S 13 19 7 10 - - 0.0
19/12:30pm 9.5 5.2 5.4 75 1.9 S 17 20 9 11 - - 0.0
19/12:20pm 10.1 4.9 3.6 64 3.0 S 20 28 11 15 - - 0.0
19/12:10pm 10.3 4.0 3.5 62 3.1 SSW 26 28 14 15 - - 0.0
19/12:00pm 10.9 3.4 3.4 60 3.4 SSW 32 39 17 21 - - 0.0
19/11:50am 12.7 5.8 4.4 57 3.9 SSW 30 33 16 18 - - 0.0
19/11:40am 12.9 5.6 4.3 56 4.1 SSW 32 35 17 19 - - 0.0
19/11:30am 12.8 5.9 4.8 58 3.8 S 30 37 16 20 - - 0.0
19/11:20am 12.7 5.8 4.7 58 3.8 S 30 33 16 18 - - 0.0
19/11:10am 10.7 4.9 4.4 65 2.9 S 24 28 13 15 - - 0.0
19/11:00am 10.7 5.4 4.8 67 2.8 SSW 22 28 12 15 - - 0.0
19/10:50am 12.0 6.3 6.9 71 2.5 SSW 26 32 14 17 - - 0.0
19/10:40am 15.2 11.6 8.4 64 3.6 SW 17 26 9 14 - - 0.0
19/10:30am 14.9 10.8 7.7 62 3.7 W 19 26 10 14 - - 0.0
19/10:20am 14.5 8.5 3.3 47 5.3 WNW 24 30 13 16 - - 0.0
19/10:10am 15.4 10.7 5.3 51 5.0 W 19 24 10 13 - - 0.0
19/10:00am 15.7 12.0 6.2 53 4.8 WNW 15 20 8 11 - - 0.0
19/09:50am 15.3 10.5 2.5 42 6.0 NW 17 26 9 14 - - 0.0
19/09:40am 14.5 11.3 4.9 52 4.7 NW 11 15 6 8 - - 0.0
19/09:30am 15.3 13.0 9.1 66 3.3 NNW 11 15 6 8 - - 0.0
19/09:20am 15.4 14.0 8.8 65 3.5 WNW 6 11 3 6 - - 0.0
19/09:10am 14.2 11.2 7.9 66 3.3 NW 13 19 7 10 - - 0.0
19/09:00am 14.1 11.6 8.2 67 3.1 NNW 11 15 6 8 - - 0.8
19/08:50am 13.8 11.3 8.3 69 2.9 NNW 11 13 6 7 - - 0.8
19/08:40am 13.0 10.6 8.5 74 2.3 NNW 11 13 6 7 - - 0.8
19/08:30am 12.3 9.0 8.1 75 2.2 NNW 15 17 8 9 - - 0.8
19/08:20am 12.5 9.3 8.4 76 2.1 NNW 15 17 8 9 - - 0.8
19/08:10am 12.4 9.1 8.1 75 2.2 NNW 15 19 8 10 - - 0.8
19/08:00am 12.8 9.8 7.8 71 2.6 NNW 13 19 7 10 - - 0.8
19/07:50am 13.2 10.8 8.5 73 2.4 NNW 11 17 6 9 - - 0.8
19/07:40am 12.8 11.4 8.7 76 2.1 N 6 7 3 4 - - 0.8
19/07:30am 12.2 10.5 8.2 76 2.1 N 7 9 4 5 - - 0.8
19/07:20am 11.3 9.6 8.5 83 1.4 NNE 7 9 4 5 - - 0.8
19/07:10am 10.4 8.2 7.8 84 1.3 NNE 9 13 5 7 - - 0.8
19/07:00am 9.2 7.5 8.2 93 0.5 NNE 7 9 4 5 - - 0.8
19/06:50am 8.7 7.5 8.0 95 0.3 N 4 6 2 3 - - 0.8
19/06:40am 8.4 7.1 7.7 95 0.3 N 4 6 2 3 - - 0.8
19/06:30am 8.4 6.5 7.6 95 0.4 NE 7 9 4 5 - - 0.8
19/06:20am 8.4 6.7 7.5 94 0.4 E 6 7 3 4 - - 0.8
19/06:10am 8.7 7.4 7.8 94 0.4 ESE 4 7 2 4 - - 0.8
19/06:00am 8.9 8.0 7.9 93 0.5 SE 2 4 1 2 - - 0.8
19/05:50am 8.9 7.7 7.9 93 0.5 SSW 4 6 2 3 - - 0.8
19/05:40am 8.8 7.2 7.8 93 0.5 NW 6 7 3 4 - - 0.8
19/05:30am 8.7 7.4 7.8 94 0.4 NNW 4 6 2 3 - - 0.8
19/05:20am 8.4 6.5 7.6 95 0.4 NW 7 9 4 5 - - 0.8
19/05:10am 8.1 6.4 7.5 96 0.3 NNW 6 9 3 5 - - 0.8
19/05:00am 7.8 6.7 7.0 95 0.4 NNW 2 4 1 2 - - 0.8
19/04:50am 7.8 6.7 7.1 95 0.3 W 2 4 1 2 - - 0.8
19/04:40am 7.8 6.4 7.1 95 0.3 N 4 4 2 2 - - 0.8
19/04:30am 7.3 5.7 6.4 94 0.4 N 4 6 2 3 - - 0.8
19/04:20am 7.9 6.5 7.2 95 0.3 NNE 4 4 2 2 - - 0.8
19/04:10am 7.5 6.4 6.7 95 0.4 NE 2 6 1 3 - - 0.8
19/04:00am 8.0 6.9 7.0 93 0.5 S 2 4 1 2 - - 0.8
19/03:50am 8.6 6.8 7.3 91 0.6 S 6 7 3 4 - - 0.8
19/03:40am 9.7 8.1 8.0 89 0.9 SSW 6 6 3 3 - - 0.8
19/03:30am 11.0 9.0 7.3 78 1.8 NW 7 11 4 6 - - 0.8
19/03:20am 10.8 8.1 7.3 79 1.7 NNW 11 11 6 6 - - 0.8
19/03:10am 10.4 7.7 7.3 81 1.5 NNW 11 13 6 7 - - 0.8
19/03:00am 9.8 7.0 7.1 83 1.3 NNW 11 13 6 7 - - 0.8
19/02:50am 8.6 6.3 7.6 93 0.5 NNW 9 11 5 6 - - 0.8
19/02:40am 8.3 6.6 7.6 95 0.3 NNW 6 6 3 3 - - 0.8
19/02:30am 8.0 6.6 7.4 96 0.3 WNW 4 7 2 4 - - 0.8
19/02:20am 7.9 6.0 7.4 97 0.2 NNW 7 9 4 5 - - 0.8
19/02:10am 7.5 5.7 7.0 97 0.2 NNE 6 7 3 4 - - 0.8
19/02:00am 7.5 6.4 7.0 97 0.2 N 2 2 1 1 - - 0.8
19/01:50am 7.9 6.9 7.3 96 0.3 WSW 2 4 1 2 - - 0.8
19/01:40am 8.1 7.1 7.5 96 0.3 ESE 2 4 1 2 - - 0.8
19/01:30am 8.1 7.2 7.6 97 0.2 SSE 2 4 1 2 - - 0.8
19/01:20am 8.1 6.8 7.6 97 0.2 ENE 4 6 2 3 - - 0.8
19/01:10am 8.0 6.3 7.4 96 0.3 ENE 6 6 3 3 - - 0.8
19/01:00am 8.1 6.2 7.5 96 0.3 NE 7 7 4 4 - - 0.8
19/12:50am 8.6 7.0 8.0 96 0.3 NE 6 6 3 3 - - 0.8
19/12:40am 8.9 8.1 8.3 96 0.3 NNE 2 4 1 2 - - 0.8
19/12:30am 9.3 9.0 8.7 96 0.3 CALM 0 2 0 1 - - 0.8
19/12:20am 9.5 8.9 8.8 95 0.4 N 2 2 1 1 - - 0.8
19/12:10am 9.6 9.0 8.9 95 0.4 NNE 2 4 1 2 - - 0.8
19/12:00am 9.7 8.7 9.0 95 0.4 NNE 4 4 2 2 - - 0.8
 
Date/Time
EDT
Temp
°C
App
Temp
°C
Dew
Point
°C
Rel
Hum
%
Delta-T
°C
Wind Press
QNH
hPa
Press
MSL
hPa
Rain since
9am
mm
Dir  Spd
km/h
Gust
km/h
Spd
kts
Gust
kts
18/11:50pm 9.8 8.9 9.1 95 0.4 NNW 4 4 2 2 - - 0.8
18/11:40pm 9.9 9.0 9.2 95 0.4 SE 4 6 2 3 - - 0.8
18/11:30pm 9.9 9.0 9.1 95 0.4 S 4 4 2 2 - - 0.8
18/11:20pm 9.9 9.0 9.1 95 0.4 SE 4 6 2 3 - - 0.8
18/11:10pm 10.0 8.1 9.2 95 0.4 ENE 9 11 5 6 - - 0.8
18/11:00pm 10.0 8.2 9.3 95 0.4 NE 9 11 5 6 - - 0.8
18/10:50pm 9.9 8.4 9.3 96 0.3 ENE 7 7 4 4 - - 0.8
18/10:40pm 10.1 8.9 9.4 95 0.4 NE 6 7 3 4 - - 0.8
18/10:30pm 10.2 9.0 9.5 95 0.4 NE 6 7 3 4 - - 0.8
18/10:20pm 10.3 9.1 9.6 95 0.4 NE 6 7 3 4 - - 0.8
18/10:10pm 10.3 9.5 9.6 95 0.4 ENE 4 6 2 3 - - 0.8
18/10:00pm 10.3 9.1 9.5 95 0.4 NE 6 6 3 3 - - 0.8
18/09:50pm 10.3 9.1 9.5 95 0.4 NE 6 6 3 3 - - 0.8
18/09:40pm 10.3 9.1 9.4 94 0.5 NE 6 6 3 3 - - 0.8
18/09:30pm 10.4 9.0 9.4 93 0.5 NE 7 7 4 4 - - 0.8
18/09:20pm 10.7 9.3 9.5 92 0.6 N 7 9 4 5 - - 0.8
18/09:10pm 10.9 7.9 9.1 89 0.9 S 15 24 8 13 - - 0.8
18/09:00pm 11.4 6.8 9.5 88 1.0 SSW 24 35 13 19 - - 0.4
18/08:50pm 12.9 8.8 8.0 72 2.5 W 19 41 10 22 - - 0.0
18/08:40pm 12.8 11.0 7.1 68 2.9 N 6 7 3 4 - - 0.0
18/08:30pm 12.8 11.1 7.4 69 2.7 N 6 7 3 4 - - 0.0
18/08:20pm 13.5 11.7 7.1 65 3.2 NNW 6 7 3 4 - - 0.0
18/08:10pm 14.2 12.1 6.7 60 3.8 NW 7 7 4 4 - - 0.0
18/08:00pm 14.7 12.5 6.2 56 4.3 NW 7 7 4 4 - - 0.0
18/07:50pm 15.0 12.8 6.3 56 4.4 NW 7 9 4 5 - - 0.0
18/07:40pm 15.4 12.4 6.2 54 4.6 NW 11 11 6 6 - - 0.0
18/07:30pm 15.7 12.7 6.1 53 4.8 NW 11 13 6 7 - - 0.0
18/07:20pm 15.6 11.8 5.9 52 4.9 WNW 15 19 8 10 - - 0.0
18/07:10pm 15.9 12.9 6.0 52 5.0 WNW 11 13 6 7 - - 0.0
18/07:00pm 16.3 13.2 5.7 49 5.3 WNW 11 13 6 7 - - 0.0
18/06:50pm 16.5 13.8 5.5 48 5.5 WNW 9 11 5 6 - - 0.0
18/06:40pm 16.6 13.4 5.1 46 5.7 WNW 11 15 6 8 - - 0.0
18/06:30pm 16.8 13.2 5.2 46 5.8 WNW 13 17 7 9 - - 0.0
18/06:20pm 17.0 13.2 6.0 48 5.6 WNW 15 20 8 11 - - 0.0
18/06:10pm 17.1 12.5 5.8 47 5.7 W 19 22 10 12 - - 0.0
18/06:00pm 17.4 12.7 6.0 47 5.8 W 20 26 11 14 - - 0.0
18/05:50pm 17.6 13.0 5.5 45 6.1 WNW 19 20 10 11 - - 0.0
18/05:40pm 17.7 12.9 4.9 42 6.4 WNW 19 22 10 12 - - 0.0
18/05:30pm 18.0 13.8 5.7 44 6.2 W 17 19 9 10 - - 0.0
18/05:20pm 18.2 14.0 5.7 44 6.3 W 17 22 9 12 - - 0.0
18/05:10pm 18.1 13.3 5.5 43 6.4 WNW 20 24 11 13 - - 0.0
18/05:00pm 18.3 13.3 4.4 39 6.9 W 20 26 11 14 - - 0.0
18/04:50pm 19.3 13.7 3.7 35 7.7 WNW 22 26 12 14 - - 0.0
18/04:40pm 19.4 13.8 3.6 35 7.8 WNW 22 30 12 16 - - 0.0
18/04:30pm 19.5 14.5 3.7 35 7.8 WNW 19 26 10 14 - - 0.0
18/04:20pm 19.8 14.8 3.8 34 7.9 W 19 22 10 12 - - 0.0
18/04:10pm 19.9 13.9 3.5 33 8.1 W 24 28 13 15 - - 0.0
18/04:00pm 19.8 14.4 2.7 32 8.3 WNW 20 26 11 14 - - 0.0
18/03:50pm 20.2 14.4 2.3 30 8.6 WNW 22 30 12 16 - - 0.0
18/03:40pm 20.3 14.2 2.9 31 8.5 W 24 28 13 15 - - 0.0
18/03:30pm 20.6 15.6 3.7 33 8.4 WNW 19 24 10 13 - - 0.0
18/03:20pm 20.3 14.6 2.7 31 8.5 W 22 30 12 16 - - 0.0
18/03:10pm 20.4 14.8 3.7 33 8.3 W 22 28 12 15 - - 0.0
18/03:00pm 20.0 13.7 3.5 33 8.1 WNW 26 33 14 18 - - 0.0
18/02:50pm 20.1 13.8 3.5 33 8.2 W 26 32 14 17 - - 0.0
18/02:40pm 20.1 13.6 2.7 31 8.4 W 26 33 14 18 - - 0.0
18/02:30pm 20.1 14.1 3.1 32 8.3 W 24 32 13 17 - - 0.0
18/02:20pm 19.9 14.0 3.9 34 7.9 WNW 24 30 13 16 - - 0.0
18/02:10pm 19.6 14.0 5.6 40 7.2 WNW 24 32 13 17 - - 0.0
18/02:00pm 19.4 14.4 6.4 42 6.7 NW 22 28 12 15 - - 0.0
18/01:50pm 19.6 15.3 8.0 47 6.2 WNW 20 26 11 14 - - 0.0
18/01:40pm 19.4 15.1 7.2 45 6.4 WNW 19 24 10 13 - - 0.0
18/01:30pm 18.8 14.3 6.9 46 6.2 WNW 20 26 11 14 - - 0.0
18/01:20pm 18.6 14.5 8.0 50 5.6 NW 19 24 10 13 - - 0.0
18/01:10pm 18.3 14.0 7.2 48 5.8 WNW 19 26 10 14 - - 0.0
18/01:00pm 18.3 14.2 7.8 50 5.5 NW 19 20 10 11 - - 0.0
18/12:50pm 18.5 15.1 7.7 49 5.7 WNW 15 22 8 12 - - 0.0
18/12:40pm 18.2 14.4 7.6 50 5.6 WNW 17 24 9 13 - - 0.0
18/12:30pm 17.8 13.5 6.9 49 5.6 WNW 19 26 10 14 - - 0.0
18/12:20pm 17.9 13.9 6.8 48 5.7 WNW 17 24 9 13 - - 0.0
18/12:10pm 17.9 13.3 5.5 44 6.3 WNW 19 28 10 15 - - 0.0
18/12:00pm 17.8 14.0 5.9 45 6.0 WNW 15 22 8 12 - - 0.0
18/11:50am 17.8 13.8 6.7 48 5.7 WNW 17 24 9 13 - - 0.0
18/11:40am 17.2 12.8 6.6 49 5.4 WNW 19 22 10 12 - - 0.0
18/11:30am 17.0 12.4 5.7 47 5.7 WNW 19 22 10 12 - - 0.0
18/11:20am 16.8 12.3 5.9 48 5.5 WNW 19 26 10 14 - - 0.0
18/11:10am 16.5 12.0 6.1 50 5.3 WNW 19 24 10 13 - - 0.0
18/11:00am 16.5 12.0 5.9 49 5.3 WNW 19 26 10 14 - - 0.0
18/10:50am 16.1 11.1 6.3 52 5.0 WNW 22 26 12 14 - - 0.0
18/10:40am 16.1 11.6 6.2 52 5.0 WNW 19 26 10 14 - - 0.0
18/10:30am 15.8 11.8 6.7 54 4.6 WNW 17 26 9 14 - - 0.0
18/10:20am 15.6 11.3 6.9 56 4.4 WNW 19 22 10 12 - - 0.0
18/10:10am 15.3 10.8 6.0 54 4.7 WNW 19 24 10 13 - - 0.0
18/10:00am 15.1 10.6 6.2 55 4.5 WNW 19 22 10 12 - - 0.0
18/09:50am 14.8 10.3 6.2 56 4.3 WNW 19 20 10 11 - - 0.0
18/09:40am 14.3 9.7 6.6 60 3.9 WNW 20 22 11 12 - - 0.0
18/09:30am 14.2 9.7 6.2 58 4.0 W 19 24 10 13 - - 0.0
18/09:20am 13.7 9.3 6.4 61 3.6 W 19 22 10 12 - - 0.0

Latest Capital City Observations: Canberra | Sydney | Melbourne | Brisbane | Adelaide | Perth | Hobart | Darwin

Other formats

Comma delimited format used in spreadsheet applications
http://www.bom.gov.au/fwo/IDN60903/IDN60903.99764.axf

JavaScript Object Notation format (JSON) in row-major order
http://www.bom.gov.au/fwo/IDN60903/IDN60903.99764.json

Data quality

Most of these data are generated automatically and are frequently updated. Quality checks on data are not normally performed. It is possible for incorrect values to appear. Refer to information at About Latest Weather Observations and please check the disclaimer before using these data.